Time;durP1;ratioP1;P1;durP2;ratioP2;P2;SDS_P1;SDS_P2;PMS_P1;PMS_P2;Temp;Humidity;BMP_temperature;BMP_pressure;BME280_temperature;BME280_humidity;BME280_pressure;Samples;Min_cycle;Max_cycle;Signal;HPM_P1;HPM_P2
2023/10/18 00:01:15;;;;;;;11.32;6.65;;;;;;;;;;5054864;28;20051;-72
2023/10/18 00:03:41;;;;;;;9.13;5.65;;;;;;;;;;5072921;28;20411;-72
2023/10/18 00:06:12;;;;;;;9.18;5.60;;;;;;;;;;5072407;28;20478;-72
2023/10/18 00:08:40;;;;;;;10.93;6.70;;;;;;;;;;5042056;28;20541;-72
2023/10/18 00:11:06;;;;;;;8.98;6.55;;;;;;;;;;5052728;28;20043;-72
2023/10/18 00:13:33;;;;;;;12.98;7.88;;;;;;;;;;5054759;28;20112;-72
2023/10/18 00:16:03;;;;;;;12.82;7.13;;;;;;;;;;5050948;28;20109;-72
2023/10/18 00:18:28;;;;;;;12.05;7.07;;;;;;;;;;5036473;28;20419;-72
2023/10/18 00:20:58;;;;;;;13.05;6.13;;;;;;;;;;5045431;28;20114;-72
2023/10/18 00:23:23;;;;;;;12.25;6.70;;;;;;;;;;5058498;28;20029;-73
2023/10/18 00:25:49;;;;;;;9.43;5.28;;;;;;;;;;5058306;28;20172;-72
2023/10/18 00:28:14;;;;;;;11.85;6.57;;;;;;;;;;5076086;28;20028;-72
2023/10/18 00:30:39;;;;;;;15.68;9.00;;;;;;;;;;5066809;28;20029;-72
2023/10/18 00:33:06;;;;;;;12.18;6.32;;;;;;;;;;5056117;28;20391;-72
2023/10/18 00:35:32;;;;;;;14.68;7.70;;;;;;;;;;5037988;28;20513;-72
2023/10/18 00:37:58;;;;;;;11.95;6.78;;;;;;;;;;5038239;28;20029;-72
2023/10/18 00:43:22;;;;;;;13.75;7.57;;;;;;;;;;5038850;28;20021;-71
2023/10/18 00:45:50;;;;;;;14.88;7.45;;;;;;;;;;5039322;28;20013;-72
2023/10/18 00:48:23;;;;;;;13.20;8.00;;;;;;;;;;5038775;28;20017;-72
2023/10/18 00:50:52;;;;;;;14.32;7.80;;;;;;;;;;5057087;28;20375;-72
2023/10/18 00:53:20;;;;;;;18.73;7.40;;;;;;;;;;5055899;28;20021;-71
2023/10/18 00:55:53;;;;;;;14.77;8.07;;;;;;;;;;5038909;28;20025;-71
2023/10/18 00:58:21;;;;;;;13.43;6.82;;;;;;;;;;5038664;28;20049;-72
2023/10/18 01:00:48;;;;;;;16.58;8.18;;;;;;;;;;5055829;28;20044;-71
2023/10/18 01:03:28;;;;;;;11.77;7.10;;;;;;;;;;5037715;28;20064;-72
2023/10/18 01:06:02;;;;;;;10.50;7.25;;;;;;;;;;5055563;28;20079;-72
2023/10/18 01:08:31;;;;;;;15.48;7.78;;;;;;;;;;5037865;28;20070;-72
2023/10/18 01:11:03;;;;;;;13.82;7.43;;;;;;;;;;5038226;28;20143;-72
2023/10/18 01:13:29;;;;;;;12.02;7.32;;;;;;;;;;5038527;28;20044;-71
2023/10/18 01:15:54;;;;;;;14.75;7.72;;;;;;;;;;5054646;28;20483;-72
2023/10/18 01:18:21;;;;;;;20.48;9.05;;;;;;;;;;5055571;28;20031;-72
2023/10/18 01:20:47;;;;;;;14.05;7.70;;;;;;;;;;5037753;28;20115;-72
2023/10/18 01:23:12;;;;;;;22.70;7.97;;;;;;;;;;5055481;28;20024;-72
2023/10/18 01:25:38;;;;;;;16.65;7.47;;;;;;;;;;5055171;28;20024;-72
2023/10/18 01:28:05;;;;;;;13.95;7.68;;;;;;;;;;5055191;28;20029;-71
2023/10/18 01:30:31;;;;;;;12.30;7.35;;;;;;;;;;5053734;28;20044;-72
2023/10/18 01:32:56;;;;;;;13.65;7.28;;;;;;;;;;5037330;28;20017;-71
2023/10/18 01:35:21;;;;;;;15.05;7.82;;;;;;;;;;5055108;28;20021;-71
2023/10/18 01:37:49;;;;;;;15.55;7.57;;;;;;;;;;5055305;28;20029;-71
2023/10/18 01:40:55;;;;;;;12.25;6.43;;;;;;;;;;5054948;28;20394;-72
2023/10/18 01:43:22;;;;;;;13.75;7.90;;;;;;;;;;5054475;28;20093;-71
2023/10/18 01:45:48;;;;;;;13.82;6.70;;;;;;;;;;5054961;28;20096;-71
2023/10/18 01:48:17;;;;;;;13.45;8.10;;;;;;;;;;5054848;28;20490;-72
2023/10/18 01:50:43;;;;;;;11.13;6.93;;;;;;;;;;5054741;28;20025;-72
2023/10/18 01:53:15;;;;;;;11.10;5.95;;;;;;;;;;5054128;28;20494;-72
2023/10/18 01:55:56;;;;;;;11.23;6.32;;;;;;;;;;5037751;28;20032;-72
2023/10/18 01:58:24;;;;;;;15.30;6.65;;;;;;;;;;5039057;28;20021;-72
2023/10/18 02:00:53;;;;;;;12.90;6.28;;;;;;;;;;5037367;28;20029;-72
2023/10/18 02:03:19;;;;;;;8.60;5.65;;;;;;;;;;5054166;28;20048;-72
2023/10/18 02:05:46;;;;;;;12.55;7.30;;;;;;;;;;5054331;28;20028;-72
2023/10/18 02:08:11;;;;;;;10.57;6.13;;;;;;;;;;5036932;28;20104;-72
2023/10/18 02:10:40;;;;;;;9.88;5.90;;;;;;;;;;5036516;28;20060;-72
2023/10/18 02:13:08;;;;;;;9.80;6.35;;;;;;;;;;5072975;28;20043;-72
2023/10/18 02:15:33;;;;;;;10.40;5.93;;;;;;;;;;5075060;28;20039;-72
2023/10/18 02:18:00;;;;;;;14.60;5.53;;;;;;;;;;5067805;28;20025;-72
2023/10/18 02:20:26;;;;;;;9.82;5.88;;;;;;;;;;5070434;28;20028;-72
2023/10/18 02:22:59;;;;;;;8.18;5.13;;;;;;;;;;5057867;28;20114;-72
2023/10/18 02:28:08;;;;;;;11.65;5.95;;;;;;;;;;5058706;28;20548;-72
2023/10/18 02:30:36;;;;;;;9.70;5.72;;;;;;;;;;5073551;28;20025;-72
2023/10/18 02:33:02;;;;;;;13.25;5.68;;;;;;;;;;5056105;28;20028;-72
2023/10/18 02:35:27;;;;;;;14.68;5.53;;;;;;;;;;5056725;28;20029;-72
2023/10/18 02:37:53;;;;;;;14.50;5.93;;;;;;;;;;5053653;28;20531;-72
2023/10/18 02:40:29;;;;;;;7.47;4.78;;;;;;;;;;5056186;28;20103;-72
2023/10/18 02:42:55;;;;;;;8.27;5.45;;;;;;;;;;5077842;28;20024;-72
2023/10/18 02:45:22;;;;;;;9.00;4.68;;;;;;;;;;5055557;28;20027;-72
2023/10/18 02:47:51;;;;;;;7.93;5.18;;;;;;;;;;5073727;28;20053;-72
2023/10/18 02:50:19;;;;;;;10.40;5.22;;;;;;;;;;5073040;28;20534;-72
2023/10/18 02:52:47;;;;;;;9.38;5.15;;;;;;;;;;5055767;28;20028;-72
2023/10/18 02:55:18;;;;;;;11.50;5.70;;;;;;;;;;5055535;28;20060;-72
2023/10/18 02:57:46;;;;;;;;;;;;;;;;;;5080580;23;20048;-68
2023/10/18 03:00:13;;;;;;;8.48;4.63;;;;;;;;;;5072850;28;19954;-67
2023/10/18 03:02:38;;;;;;;11.30;5.43;;;;;;;;;;5062909;28;20029;-67
2023/10/18 03:05:06;;;;;;;10.75;6.05;;;;;;;;;;5052263;28;20466;-67
2023/10/18 03:07:31;;;;;;;7.78;4.55;;;;;;;;;;5051264;28;20016;-67
2023/10/18 03:10:44;;;;;;;9.25;4.88;;;;;;;;;;5072543;28;20398;-67
2023/10/18 03:12:44;;;;;;;8.57;5.10;;;;;;;;;;5078388;28;20162;-67
2023/10/18 03:15:12;;;;;;;8.57;5.03;;;;;;;;;;5072745;28;20070;-67
2023/10/18 03:17:37;;;;;;;9.70;5.20;;;;;;;;;;5072347;28;20027;-67
2023/10/18 03:20:19;;;;;;;7.80;4.88;;;;;;;;;;5072247;28;20020;-67
2023/10/18 03:22:45;;;;;;;7.80;4.72;;;;;;;;;;5072377;28;20028;-67
2023/10/18 03:25:12;;;;;;;10.57;5.72;;;;;;;;;;5071508;28;20417;-67
2023/10/18 03:27:41;;;;;;;9.30;5.40;;;;;;;;;;5072596;28;20032;-67
2023/10/18 03:30:17;;;;;;;10.50;5.53;;;;;;;;;;5072542;28;20020;-67
2023/10/18 03:32:43;;;;;;;9.48;4.70;;;;;;;;;;5086284;28;20482;-67
2023/10/18 03:35:09;;;;;;;6.68;4.75;;;;;;;;;;5087980;28;20025;-67
2023/10/18 03:37:38;;;;;;;7.45;4.60;;;;;;;;;;5072531;28;20021;-67
2023/10/18 03:40:17;;;;;;;8.27;4.70;;;;;;;;;;5066922;28;20029;-67
2023/10/18 03:42:45;;;;;;;7.20;4.75;;;;;;;;;;5071838;28;20520;-67
2023/10/18 03:45:21;;;;;;;8.15;4.82;;;;;;;;;;5072372;28;20029;-67
2023/10/18 03:47:57;;;;;;;8.48;4.68;;;;;;;;;;5072339;28;20024;-67
2023/10/18 03:50:28;;;;;;;7.75;5.05;;;;;;;;;;5061707;28;20029;-67
2023/10/18 03:52:53;;;;;;;;;;;;;;;;;;5071632;28;20017;-67
2023/10/18 03:55:23;;;;;;;8.85;3.33;;;;;;;;;;5076123;28;20266;-67
2023/10/18 03:57:54;;;;;;;7.40;4.28;;;;;;;;;;5076224;28;20037;-67
2023/10/18 04:03:00;;;;;;;6.68;4.38;;;;;;;;;;5076317;28;20036;-67
2023/10/18 04:08:02;;;;;;;9.43;4.47;;;;;;;;;;5076414;28;20039;-68
2023/10/18 04:10:31;;;;;;;6.13;4.75;;;;;;;;;;5075932;28;20092;-67
2023/10/18 04:12:56;;;;;;;8.35;4.47;;;;;;;;;;5075915;28;20398;-67
2023/10/18 04:15:22;;;;;;;9.25;5.28;;;;;;;;;;5075240;28;20036;-67
2023/10/18 04:18:02;;;;;;;8.30;4.95;;;;;;;;;;5054607;28;20025;-67
2023/10/18 04:20:31;;;;;;;8.05;4.40;;;;;;;;;;5055536;28;20151;-67
2023/10/18 04:22:57;;;;;;;10.02;6.07;;;;;;;;;;5065079;28;20052;-67
2023/10/18 04:25:31;;;;;;;7.93;4.70;;;;;;;;;;5075653;28;20067;-67
2023/10/18 04:27:58;;;;;;;7.95;5.05;;;;;;;;;;5075704;28;20025;-67
2023/10/18 04:30:24;;;;;;;9.23;5.20;;;;;;;;;;5075169;28;20095;-67
2023/10/18 04:33:14;;;;;;;8.52;4.60;;;;;;;;;;5074229;28;20046;-67
2023/10/18 04:35:45;;;;;;;9.18;4.38;;;;;;;;;;5072245;28;20025;-68
2023/10/18 04:38:29;;;;;;;8.10;4.38;;;;;;;;;;5073791;28;20024;-67
2023/10/18 04:41:06;;;;;;;7.78;4.43;;;;;;;;;;5075206;28;20029;-68
2023/10/18 04:43:33;;;;;;;8.65;4.50;;;;;;;;;;5075640;28;20022;-67
2023/10/18 04:46:02;;;;;;;9.38;4.40;;;;;;;;;;5074969;28;20016;-67
2023/10/18 04:51:26;;;;;;;5.35;4.20;;;;;;;;;;5075191;28;20031;-67
2023/10/18 04:54:00;;;;;;;5.88;4.22;;;;;;;;;;5074722;28;20123;-67
2023/10/18 04:56:34;;;;;;;8.48;3.53;;;;;;;;;;5066745;28;20394;-67
2023/10/18 04:58:59;;;;;;;7.05;3.95;;;;;;;;;;5055063;28;20033;-67
2023/10/18 05:01:34;;;;;;;6.88;3.67;;;;;;;;;;5063111;28;20391;-67
2023/10/18 05:04:18;;;;;;;7.18;4.47;;;;;;;;;;5053861;28;20100;-67
2023/10/18 05:06:43;;;;;;;7.75;4.57;;;;;;;;;;5056489;28;20025;-67
2023/10/18 05:09:10;;;;;;;6.30;4.13;;;;;;;;;;5075234;28;20031;-67
2023/10/18 05:11:47;;;;;;;9.73;5.25;;;;;;;;;;5074216;28;20024;-67
2023/10/18 05:14:19;;;;;;;15.20;5.53;;;;;;;;;;5074768;28;20482;-67
2023/10/18 05:16:46;;;;;;;7.82;5.28;;;;;;;;;;5074809;28;20082;-67
2023/10/18 05:19:12;;;;;;;8.25;4.60;;;;;;;;;;5058800;28;20028;-67
2023/10/18 05:21:39;;;;;;;5.05;3.83;;;;;;;;;;5053973;28;20025;-67
2023/10/18 05:24:05;;;;;;;5.32;3.40;;;;;;;;;;5054743;28;20020;-67
2023/10/18 05:26:33;;;;;;;8.60;4.28;;;;;;;;;;5054695;28;20104;-67
2023/10/18 05:29:02;;;;;;;6.38;3.67;;;;;;;;;;5054285;28;20548;-67
2023/10/18 05:39:27;;;;;;;7.32;4.45;;;;;;;;;;5087464;28;20039;-67
2023/10/18 05:42:00;;;;;;;7.43;4.47;;;;;;;;;;5087790;28;20024;-68
2023/10/18 05:44:28;;;;;;;10.40;5.68;;;;;;;;;;5074112;28;20028;-67
2023/10/18 05:46:53;;;;;;;10.48;5.43;;;;;;;;;;5073610;28;20488;-67
2023/10/18 05:49:25;;;;;;;12.98;5.82;;;;;;;;;;5074002;28;20048;-67
2023/10/18 05:51:58;;;;;;;9.32;5.25;;;;;;;;;;5074006;28;20103;-67
2023/10/18 05:54:24;;;;;;;9.48;4.85;;;;;;;;;;5067066;28;20379;-67
2023/10/18 05:56:50;;;;;;;10.18;6.25;;;;;;;;;;5053221;28;20061;-67
2023/10/18 06:01:49;;;;;;;9.77;5.38;;;;;;;;;;5066546;28;20024;-67
2023/10/18 06:04:23;;;;;;;11.18;5.38;;;;;;;;;;5072217;28;20046;-67
2023/10/18 06:06:49;;;;;;;11.32;4.97;;;;;;;;;;5066174;28;20395;-67
2023/10/18 06:09:26;;;;;;;10.65;5.60;;;;;;;;;;5053366;28;20025;-67
2023/10/18 06:11:55;;;;;;;9.13;3.95;;;;;;;;;;5053888;28;20395;-67
2023/10/18 06:14:25;;;;;;;9.13;5.30;;;;;;;;;;5071959;28;20024;-68
2023/10/18 06:17:06;;;;;;;11.55;5.35;;;;;;;;;;5063084;28;20049;-68
2023/10/18 06:19:32;;;;;;;7.70;4.82;;;;;;;;;;5054405;28;20021;-68
2023/10/18 06:22:08;;;;;;;8.38;6.53;;;;;;;;;;5073045;28;20024;-68
2023/10/18 06:24:33;;;;;;;8.25;5.43;;;;;;;;;;5072716;28;20103;-68
2023/10/18 06:26:58;;;;;;;8.52;4.82;;;;;;;;;;5087346;28;20537;-68
2023/10/18 06:29:24;;;;;;;11.88;5.57;;;;;;;;;;5070620;28;20016;-68
2023/10/18 06:31:49;;;;;;;6.85;4.88;;;;;;;;;;5063438;28;20440;-68
2023/10/18 06:34:17;;;;;;;6.55;4.82;;;;;;;;;;5062225;28;20028;-68
2023/10/18 06:36:43;;;;;;;7.82;4.93;;;;;;;;;;5070129;28;20023;-68
2023/10/18 06:39:15;;;;;;;10.55;4.70;;;;;;;;;;5072053;28;20028;-68
2023/10/18 06:41:43;;;;;;;9.23;4.85;;;;;;;;;;5072899;28;20036;-68
2023/10/18 06:44:11;;;;;;;11.57;6.70;;;;;;;;;;5072546;28;20055;-68
2023/10/18 06:46:38;;;;;;;9.20;5.30;;;;;;;;;;5072983;28;20031;-68
2023/10/18 06:49:10;;;;;;;10.93;5.32;;;;;;;;;;5088169;28;20506;-68
2023/10/18 06:51:40;;;;;;;7.95;5.57;;;;;;;;;;5072481;28;20021;-68
2023/10/18 06:54:06;;;;;;;12.05;5.20;;;;;;;;;;5088115;28;20398;-68
2023/10/18 06:56:32;;;;;;;11.55;4.78;;;;;;;;;;5072692;28;20024;-68
2023/10/18 06:59:04;;;;;;;10.35;5.03;;;;;;;;;;5072441;28;20027;-68
2023/10/18 07:01:31;;;;;;;7.47;4.85;;;;;;;;;;5072982;28;20017;-68
2023/10/18 07:03:56;;;;;;;8.55;5.47;;;;;;;;;;5072613;28;20033;-68
2023/10/18 07:06:24;;;;;;;6.80;3.50;;;;;;;;;;5072488;28;20367;-68
2023/10/18 07:08:50;;;;;;;10.32;6.45;;;;;;;;;;5072793;28;20025;-68
2023/10/18 07:11:16;;;;;;;8.13;4.93;;;;;;;;;;5088263;28;20024;-68
2023/10/18 07:13:46;;;;;;;6.55;4.97;;;;;;;;;;5072094;28;20024;-68
2023/10/18 07:16:13;;;;;;;11.23;5.53;;;;;;;;;;5071073;28;20107;-68
2023/10/18 07:18:39;;;;;;;9.00;5.30;;;;;;;;;;5072432;28;20487;-68
2023/10/18 07:21:09;;;;;;;8.65;4.95;;;;;;;;;;5072498;28;20032;-68
2023/10/18 07:23:37;;;;;;;8.75;5.22;;;;;;;;;;5072961;28;20025;-68
2023/10/18 07:26:04;;;;;;;12.50;5.05;;;;;;;;;;5071799;28;20474;-68
2023/10/18 07:28:35;;;;;;;9.43;5.65;;;;;;;;;;5075369;28;20078;-68
2023/10/18 07:31:01;;;;;;;7.07;5.65;;;;;;;;;;5076978;28;20098;-68
2023/10/18 07:33:26;;;;;;;10.65;5.75;;;;;;;;;;5076408;28;20028;-68
2023/10/18 07:35:52;;;;;;;7.07;5.20;;;;;;;;;;5091494;28;20032;-68
2023/10/18 07:38:25;;;;;;;9.52;5.45;;;;;;;;;;5076481;28;20028;-68
2023/10/18 07:40:57;;;;;;;9.35;5.07;;;;;;;;;;5076543;28;20029;-68
2023/10/18 07:43:24;;;;;;;8.82;5.43;;;;;;;;;;5092074;28;20024;-68
2023/10/18 07:45:53;;;;;;;7.88;6.10;;;;;;;;;;5075785;28;20021;-68
2023/10/18 07:48:20;;;;;;;7.85;5.47;;;;;;;;;;5076048;28;20029;-68
2023/10/18 07:50:51;;;;;;;10.93;7.70;;;;;;;;;;5076041;28;20105;-68
2023/10/18 07:53:20;;;;;;;9.43;5.45;;;;;;;;;;5076257;28;20031;-68
2023/10/18 07:55:48;;;;;;;11.68;7.20;;;;;;;;;;5076180;28;20025;-68
2023/10/18 07:58:23;;;;;;;11.18;6.22;;;;;;;;;;5075203;28;20032;-68
2023/10/18 08:03:27;;;;;;;10.07;6.07;;;;;;;;;;5076175;28;20043;-68
2023/10/18 08:05:55;;;;;;;8.23;6.63;;;;;;;;;;5075793;28;20044;-68
2023/10/18 08:08:24;;;;;;;9.23;6.03;;;;;;;;;;5075081;28;20501;-68
2023/10/18 08:10:49;;;;;;;8.00;6.45;;;;;;;;;;5075725;28;20566;-69
2023/10/18 08:13:25;;;;;;;9.90;6.28;;;;;;;;;;5075804;28;20060;-68
2023/10/18 08:15:52;;;;;;;10.85;6.78;;;;;;;;;;5075616;28;20031;-68
2023/10/18 08:18:21;;;;;;;12.50;5.95;;;;;;;;;;5073913;28;20086;-68
2023/10/18 08:23:40;;;;;;;7.38;5.10;;;;;;;;;;5090849;28;20036;-68
2023/10/18 08:26:03;;;;;;;8.73;5.00;;;;;;;;;;5075037;28;20028;-66
2023/10/18 08:28:38;;;;;;;8.77;4.70;;;;;;;;;;5075348;28;20457;-66
2023/10/18 08:31:26;;;;;;;8.30;4.90;;;;;;;;;;5074862;28;20074;-66
2023/10/18 08:33:54;;;;;;;10.32;6.03;;;;;;;;;;5075452;28;20091;-66
2023/10/18 08:36:29;;;;;;;7.68;4.10;;;;;;;;;;5075286;28;20435;-66
2023/10/18 08:38:55;;;;;;;7.40;4.90;;;;;;;;;;5074432;28;20474;-66
2023/10/18 08:41:37;;;;;;;6.68;5.25;;;;;;;;;;5075073;28;20032;-66
2023/10/18 08:47:34;;;;;;;10.27;5.30;;;;;;;;;;5075413;28;20031;-66
2023/10/18 08:49:33;;;;;;;8.82;4.75;;;;;;;;;;5070966;28;20076;-66
2023/10/18 08:52:08;;;;;;;8.60;5.07;;;;;;;;;;5073956;28;20035;-66
2023/10/18 08:54:39;;;;;;;6.07;4.05;;;;;;;;;;5074894;28;20099;-66
2023/10/18 08:57:08;;;;;;;6.60;4.80;;;;;;;;;;5088635;22;20482;-73
2023/10/18 08:59:46;;;;;;;6.63;4.90;;;;;;;;;;5041259;28;20028;-73
2023/10/18 09:02:21;;;;;;;8.40;5.00;;;;;;;;;;5059462;28;20047;-72
2023/10/18 09:04:55;;;;;;;8.30;5.32;;;;;;;;;;5058339;28;20047;-72
2023/10/18 09:07:42;;;;;;;5.93;3.85;;;;;;;;;;5075634;28;20017;-73
2023/10/18 09:10:13;;;;;;;5.55;4.30;;;;;;;;;;5060362;28;20025;-72
2023/10/18 09:17:56;;;;;;;5.82;4.70;;;;;;;;;;5075274;28;20059;-72
2023/10/18 09:20:26;;;;;;;5.93;4.22;;;;;;;;;;5057160;28;20509;-72
2023/10/18 09:22:52;;;;;;;5.07;4.22;;;;;;;;;;5057107;28;20102;-70
2023/10/18 09:25:20;;;;;;;6.20;3.47;;;;;;;;;;5074826;28;20024;-70
2023/10/18 09:27:45;;;;;;;5.75;3.40;;;;;;;;;;5074773;28;20487;-70
2023/10/18 09:30:13;;;;;;;5.10;3.55;;;;;;;;;;5056496;28;20054;-70
2023/10/18 09:32:39;;;;;;;9.38;3.80;;;;;;;;;;5074649;28;20103;-70
2023/10/18 09:35:08;;;;;;;8.77;3.95;;;;;;;;;;5075162;28;20101;-70
2023/10/18 09:37:35;;;;;;;6.25;3.13;;;;;;;;;;5057201;28;20021;-70
2023/10/18 09:40:03;;;;;;;5.22;3.50;;;;;;;;;;5074455;28;20029;-69
2023/10/18 09:42:28;;;;;;;6.25;3.30;;;;;;;;;;5054121;28;20020;-69
2023/10/18 09:44:53;;;;;;;6.13;3.33;;;;;;;;;;5058334;28;20043;-69
2023/10/18 09:47:23;;;;;;;7.38;3.22;;;;;;;;;;5078259;28;20098;-69
2023/10/18 09:49:49;;;;;;;3.97;2.50;;;;;;;;;;5094392;28;20036;-69
2023/10/18 09:52:16;;;;;;;5.28;3.17;;;;;;;;;;5093404;28;20024;-69
2023/10/18 09:54:49;;;;;;;4.82;2.50;;;;;;;;;;5076221;28;20016;-70
2023/10/18 09:57:23;;;;;;;5.45;2.72;;;;;;;;;;5072139;28;20032;-69
2023/10/18 09:59:53;;;;;;;3.30;2.35;;;;;;;;;;5057482;28;20028;-69
2023/10/18 10:02:19;;;;;;;4.32;2.63;;;;;;;;;;5056324;28;20036;-69
2023/10/18 10:04:52;;;;;;;3.55;2.65;;;;;;;;;;5056276;28;20096;-69
2023/10/18 10:07:38;;;;;;;4.97;2.78;;;;;;;;;;5056660;28;20020;-69
2023/10/18 10:10:09;;;;;;;3.65;2.60;;;;;;;;;;5059596;28;20044;-69
2023/10/18 10:12:42;;;;;;;7.25;2.65;;;;;;;;;;5071445;28;20379;-70
2023/10/18 10:15:13;;;;;;;7.28;2.55;;;;;;;;;;5070792;28;20045;-69
2023/10/18 10:17:42;;;;;;;5.65;2.88;;;;;;;;;;5030931;28;20578;-70
2023/10/18 10:20:13;;;;;;;4.15;2.33;;;;;;;;;;5028382;28;20025;-70
2023/10/18 10:22:41;;;;;;;7.95;2.63;;;;;;;;;;5028873;28;20018;-69
2023/10/18 10:25:11;;;;;;;3.70;2.85;;;;;;;;;;5045460;28;20036;-69
2023/10/18 10:30:19;;;;;;;7.32;2.50;;;;;;;;;;5048974;28;20031;-69
2023/10/18 10:32:48;;;;;;;5.53;2.58;;;;;;;;;;5049794;28;20029;-69
2023/10/18 10:35:17;;;;;;;4.50;2.38;;;;;;;;;;5048388;28;20604;-69
2023/10/18 10:37:47;;;;;;;3.70;2.30;;;;;;;;;;5064756;28;20111;-69
2023/10/18 10:40:19;;;;;;;4.60;2.50;;;;;;;;;;5068316;28;20070;-69
2023/10/18 10:42:47;;;;;;;3.50;3.08;;;;;;;;;;5050253;28;20387;-69
2023/10/18 10:45:30;;;;;;;7.20;2.65;;;;;;;;;;5048569;28;20107;-69
2023/10/18 10:47:57;;;;;;;4.95;2.38;;;;;;;;;;5049620;28;20021;-69
2023/10/18 10:50:42;;;;;;;6.93;2.30;;;;;;;;;;5049742;28;20032;-69
2023/10/18 10:53:08;;;;;;;7.70;2.40;;;;;;;;;;5054183;28;20052;-70
2023/10/18 10:55:34;;;;;;;6.40;3.25;;;;;;;;;;5058042;28;20043;-69
2023/10/18 10:58:15;;;;;;;5.93;2.13;;;;;;;;;;5051759;28;20111;-69
2023/10/18 11:00:59;;;;;;;2.60;2.10;;;;;;;;;;5063620;28;20017;-69
2023/10/18 11:03:30;;;;;;;6.10;2.00;;;;;;;;;;5067987;28;20036;-69
2023/10/18 11:05:58;;;;;;;4.18;2.03;;;;;;;;;;5062969;28;20079;-70
2023/10/18 11:08:25;;;;;;;3.45;2.00;;;;;;;;;;5049214;28;20107;-69
2023/10/18 11:10:50;;;;;;;4.53;1.90;;;;;;;;;;5047735;28;20533;-70
2023/10/18 11:13:22;;;;;;;4.70;2.20;;;;;;;;;;5047416;28;20033;-69
2023/10/18 11:15:49;;;;;;;4.45;1.95;;;;;;;;;;5047904;28;20025;-70
2023/10/18 11:18:20;;;;;;;3.85;2.08;;;;;;;;;;5048784;28;20044;-69
2023/10/18 11:20:58;;;;;;;5.05;1.88;;;;;;;;;;5064219;28;20059;-69
2023/10/18 11:23:29;;;;;;;5.10;1.90;;;;;;;;;;5057992;28;20232;-69
2023/10/18 11:25:56;;;;;;;3.72;1.77;;;;;;;;;;5034428;28;20036;-70
2023/10/18 11:28:31;;;;;;;4.10;2.28;;;;;;;;;;5033547;28;20022;-69
2023/10/18 11:30:57;;;;;;;4.85;2.20;;;;;;;;;;5035988;28;20105;-70
2023/10/18 11:33:57;;;;;;;6.13;2.35;;;;;;;;;;5034384;28;20033;-68
2023/10/18 11:36:27;;;;;;;4.32;2.00;;;;;;;;;;5035274;28;20026;-67
2023/10/18 11:41:37;;;;;;;5.10;2.20;;;;;;;;;;5033701;28;20060;-67
2023/10/18 11:44:06;;;;;;;5.85;2.28;;;;;;;;;;5033417;28;20025;-69
2023/10/18 11:46:46;;;;;;;3.90;2.10;;;;;;;;;;5015791;28;20056;-70
2023/10/18 11:49:12;;;;;;;4.47;2.08;;;;;;;;;;5025936;28;20395;-69
2023/10/18 11:51:43;;;;;;;4.43;1.80;;;;;;;;;;5054679;28;20092;-69
2023/10/18 11:54:12;;;;;;;3.60;2.03;;;;;;;;;;5054818;28;20393;-70
2023/10/18 11:56:40;;;;;;;6.22;1.63;;;;;;;;;;5036776;28;20434;-69
2023/10/18 11:59:05;;;;;;;8.52;2.03;;;;;;;;;;5033668;28;20029;-70
2023/10/18 12:01:34;;;;;;;4.85;1.70;;;;;;;;;;5033647;28;20044;-70
2023/10/18 12:03:59;;;;;;;3.15;1.92;;;;;;;;;;5034503;28;20079;-70
2023/10/18 12:06:25;;;;;;;3.25;2.00;;;;;;;;;;5033510;28;20025;-70
2023/10/18 12:09:25;;;;;;;2.38;1.50;;;;;;;;;;5033916;28;20021;-70
2023/10/18 12:11:51;;;;;;;6.18;1.80;;;;;;;;;;5034488;28;20113;-70
2023/10/18 12:14:18;;;;;;;3.35;1.60;;;;;;;;;;5034262;28;20026;-70
2023/10/18 12:16:43;;;;;;;2.03;1.33;;;;;;;;;;5035038;28;20021;-70
2023/10/18 12:19:10;;;;;;;2.75;1.80;;;;;;;;;;5033738;28;20051;-71
2023/10/18 12:21:38;;;;;;;4.97;1.55;;;;;;;;;;5034924;28;20017;-71
2023/10/18 12:24:07;;;;;;;5.18;1.60;;;;;;;;;;5034630;28;20060;-71
2023/10/18 12:26:37;;;;;;;3.47;1.20;;;;;;;;;;5017606;28;20080;-71
2023/10/18 12:29:05;;;;;;;3.72;2.10;;;;;;;;;;5033816;28;20017;-71
2023/10/18 12:31:38;;;;;;;3.38;1.35;;;;;;;;;;5035478;28;20036;-71
2023/10/18 12:34:04;;;;;;;2.67;1.52;;;;;;;;;;5032917;28;20034;-71
2023/10/18 12:36:49;;;;;;;2.40;1.40;;;;;;;;;;5034773;28;20013;-71
2023/10/18 12:39:20;;;;;;;4.78;1.67;;;;;;;;;;5034243;28;20025;-72
2023/10/18 12:41:52;;;;;;;4.30;1.58;;;;;;;;;;5033839;28;20021;-71
2023/10/18 12:44:18;;;;;;;4.88;1.50;;;;;;;;;;5035202;28;20110;-71
2023/10/18 12:46:44;;;;;;;3.58;1.50;;;;;;;;;;5033528;28;20540;-71
2023/10/18 12:49:12;;;;;;;3.90;1.67;;;;;;;;;;5034321;28;20045;-71
2023/10/18 12:51:57;;;;;;;3.45;1.80;;;;;;;;;;5033519;28;20022;-72
2023/10/18 12:54:29;;;;;;;3.75;1.50;;;;;;;;;;5034723;28;20526;-71
2023/10/18 12:57:09;;;;;;;3.50;1.40;;;;;;;;;;5033989;28;20067;-72
2023/10/18 12:59:52;;;;;;;3.53;1.60;;;;;;;;;;5033078;28;20025;-73
2023/10/18 13:02:46;;;;;;;3.08;1.50;;;;;;;;;;5033562;28;20021;-72
2023/10/18 13:05:06;;;;;;;3.78;2.10;;;;;;;;;;5034624;28;20436;-71
2023/10/18 13:07:31;;;;;;;5.93;1.83;;;;;;;;;;5033905;28;20022;-71
2023/10/18 13:09:57;;;;;;;2.50;1.50;;;;;;;;;;5034441;28;20077;-71
2023/10/18 13:12:23;;;;;;;2.38;1.48;;;;;;;;;;5016469;28;20092;-71
2023/10/18 13:14:49;;;;;;;6.85;1.70;;;;;;;;;;5033212;28;20488;-71
2023/10/18 13:17:16;;;;;;;4.30;2.08;;;;;;;;;;5034210;28;20033;-72
2023/10/18 13:19:42;;;;;;;3.63;1.35;;;;;;;;;;5032669;28;20026;-71
2023/10/18 13:22:17;;;;;;;4.80;1.30;;;;;;;;;;5030348;28;20104;-73
2023/10/18 13:24:42;;;;;;;2.80;1.38;;;;;;;;;;5019683;28;20496;-71
2023/10/18 13:27:09;;;;;;;4.47;1.30;;;;;;;;;;5031622;28;20033;-71
2023/10/18 13:29:45;;;;;;;5.30;1.38;;;;;;;;;;5025357;28;20555;-71
2023/10/18 13:32:12;;;;;;;2.30;1.40;;;;;;;;;;5026367;28;20021;-70
2023/10/18 13:34:39;;;;;;;2.72;1.20;;;;;;;;;;5026032;28;20112;-69
2023/10/18 13:37:09;;;;;;;1.63;1.00;;;;;;;;;;5022042;28;20041;-69
2023/10/18 13:39:35;;;;;;;4.00;1.67;;;;;;;;;;5026334;28;20026;-69
2023/10/18 13:42:02;;;;;;;2.67;1.17;;;;;;;;;;5027908;28;20091;-69
2023/10/18 13:44:29;;;;;;;3.67;1.42;;;;;;;;;;5028564;28;20029;-68
2023/10/18 13:46:55;;;;;;;2.38;1.73;;;;;;;;;;5018806;28;20460;-68
2023/10/18 13:49:23;;;;;;;3.22;1.52;;;;;;;;;;5027966;28;20104;-69
2023/10/18 13:51:55;;;;;;;4.57;1.80;;;;;;;;;;5030251;28;20021;-73
2023/10/18 13:54:24;;;;;;;2.75;1.88;;;;;;;;;;5020347;28;20392;-73
2023/10/18 13:56:49;;;;;;;3.15;1.30;;;;;;;;;;5030789;28;20096;-73
2023/10/18 13:59:16;;;;;;;2.50;1.50;;;;;;;;;;5041044;28;20434;-71
2023/10/18 14:01:42;;;;;;;3.00;1.50;;;;;;;;;;5017459;28;20456;-71
2023/10/18 14:04:08;;;;;;;2.53;1.70;;;;;;;;;;5032393;28;20387;-71
2023/10/18 14:06:36;;;;;;;1.88;1.30;;;;;;;;;;5031935;28;20022;-71
2023/10/18 14:09:10;;;;;;;4.28;1.60;;;;;;;;;;5032190;28;20025;-72
2023/10/18 14:11:36;;;;;;;2.72;1.30;;;;;;;;;;5030828;28;20108;-71
2023/10/18 14:14:01;;;;;;;1.92;1.17;;;;;;;;;;5032095;28;20115;-71
2023/10/18 14:16:26;;;;;;;4.15;1.48;;;;;;;;;;5015262;28;20024;-71
2023/10/18 14:18:52;;;;;;;3.83;1.40;;;;;;;;;;5033127;28;20607;-71
2023/10/18 14:21:19;;;;;;;5.07;1.73;;;;;;;;;;5032614;28;20017;-71
2023/10/18 14:23:47;;;;;;;3.45;1.50;;;;;;;;;;5033199;28;20026;-71
2023/10/18 14:26:13;;;;;;;2.92;1.20;;;;;;;;;;5025426;28;20562;-71
2023/10/18 14:28:40;;;;;;;3.55;1.25;;;;;;;;;;5026051;28;20036;-71
2023/10/18 14:31:13;;;;;;;3.28;1.00;;;;;;;;;;5032033;28;20033;-71
2023/10/18 14:33:42;;;;;;;3.08;1.23;;;;;;;;;;5031994;28;20026;-72
2023/10/18 14:36:09;;;;;;;3.33;1.30;;;;;;;;;;5032070;28;20104;-72
2023/10/18 14:38:34;;;;;;;1.77;1.30;;;;;;;;;;5031807;28;20040;-72
2023/10/18 14:41:03;;;;;;;5.70;1.40;;;;;;;;;;5031494;28;20104;-71
2023/10/18 14:43:31;;;;;;;2.35;1.40;;;;;;;;;;5029230;28;20045;-71
2023/10/18 14:45:59;;;;;;;3.17;1.42;;;;;;;;;;5031979;28;20025;-72
2023/10/18 14:48:24;;;;;;;1.85;1.20;;;;;;;;;;5031796;28;20060;-71
2023/10/18 14:50:51;;;;;;;2.95;1.45;;;;;;;;;;5048341;28;20021;-71
2023/10/18 14:53:22;;;;;;;2.55;1.60;;;;;;;;;;5032517;28;20033;-71
2023/10/18 14:55:47;;;;;;;;;;;;;;;;;;5032249;28;20083;-71
2023/10/18 14:58:13;;;;;;;1.90;1.40;;;;;;;;;;5033634;28;19909;-72
2023/10/18 15:00:39;;;;;;;4.35;1.42;;;;;;;;;;5036911;28;20032;-71
2023/10/18 15:03:06;;;;;;;3.63;1.70;;;;;;;;;;5037098;28;20041;-71
2023/10/18 15:05:36;;;;;;;2.92;1.75;;;;;;;;;;5035430;28;20026;-71
2023/10/18 15:08:05;;;;;;;3.80;1.42;;;;;;;;;;5036071;28;20025;-71
2023/10/18 15:10:30;;;;;;;6.47;1.77;;;;;;;;;;5035488;28;20549;-71
2023/10/18 15:12:56;;;;;;;3.53;1.58;;;;;;;;;;5035526;28;20108;-71
2023/10/18 15:15:21;;;;;;;2.75;1.40;;;;;;;;;;5035416;28;20120;-72
2023/10/18 15:17:46;;;;;;;2.67;1.80;;;;;;;;;;5034979;28;20022;-71
2023/10/18 15:20:13;;;;;;;3.28;1.92;;;;;;;;;;5034922;28;20388;-71
2023/10/18 15:22:38;;;;;;;5.30;1.85;;;;;;;;;;5035190;28;20022;-72
2023/10/18 15:25:05;;;;;;;2.78;1.80;;;;;;;;;;5036072;28;20040;-71
2023/10/18 15:27:31;;;;;;;4.45;1.80;;;;;;;;;;5035177;28;20065;-71
2023/10/18 15:29:57;;;;;;;8.40;1.85;;;;;;;;;;5034947;28;20160;-71
2023/10/18 15:32:22;;;;;;;2.85;1.60;;;;;;;;;;5036236;28;20112;-71
2023/10/18 15:34:48;;;;;;;3.17;1.50;;;;;;;;;;5038054;28;20039;-71
2023/10/18 15:37:13;;;;;;;3.22;1.80;;;;;;;;;;5034995;28;20056;-71